sensor_id;sensor_type;location;lat;lon;timestamp;pressure;altitude;pressure_sealevel;temperature;humidity
30081;BME280;16902;50.816;12.828;2022-08-03T00:04:52;97914.59;;;15.46;100.00
30081;BME280;16902;50.816;12.828;2022-08-03T00:09:54;97915.03;;;15.43;100.00
30081;BME280;16902;50.816;12.828;2022-08-03T00:14:56;97915.25;;;15.35;100.00
30081;BME280;16902;50.816;12.828;2022-08-03T00:19:57;97915.47;;;15.20;100.00
30081;BME280;16902;50.816;12.828;2022-08-03T00:24:59;97918.53;;;15.10;100.00
30081;BME280;16902;50.816;12.828;2022-08-03T00:30:02;97922.16;;;15.03;100.00
30081;BME280;16902;50.816;12.828;2022-08-03T00:35:04;97921.16;;;14.97;100.00
30081;BME280;16902;50.816;12.828;2022-08-03T00:40:11;97919.75;;;14.88;100.00
30081;BME280;16902;50.816;12.828;2022-08-03T00:45:13;97917.94;;;14.88;100.00
30081;BME280;16902;50.816;12.828;2022-08-03T00:50:16;97919.97;;;14.86;100.00
30081;BME280;16902;50.816;12.828;2022-08-03T00:55:19;97911.50;;;14.78;100.00
30081;BME280;16902;50.816;12.828;2022-08-03T01:00:24;97916.13;;;14.69;100.00
30081;BME280;16902;50.816;12.828;2022-08-03T01:05:26;97912.72;;;14.62;100.00
30081;BME280;16902;50.816;12.828;2022-08-03T01:20:57;97917.13;;;14.55;100.00
30081;BME280;16902;50.816;12.828;2022-08-03T01:32:04;97915.50;;;14.47;100.00
30081;BME280;16902;50.816;12.828;2022-08-03T01:37:36;97912.47;;;14.37;100.00
30081;BME280;16902;50.816;12.828;2022-08-03T01:42:40;97912.66;;;14.35;100.00
30081;BME280;16902;50.816;12.828;2022-08-03T01:47:43;97914.69;;;14.27;100.00
30081;BME280;16902;50.816;12.828;2022-08-03T01:52:46;97907.00;;;14.19;100.00
30081;BME280;16902;50.816;12.828;2022-08-03T01:57:49;97906.16;;;14.11;100.00
30081;BME280;16902;50.816;12.828;2022-08-03T02:03:07;97914.81;;;14.05;100.00
30081;BME280;16902;50.816;12.828;2022-08-03T02:08:12;97901.50;;;14.00;100.00
30081;BME280;16902;50.816;12.828;2022-08-03T02:13:15;97915.63;;;13.99;100.00
30081;BME280;16902;50.816;12.828;2022-08-03T02:18:19;97907.75;;;13.99;100.00
30081;BME280;16902;50.816;12.828;2022-08-03T02:23:21;97907.97;;;13.98;100.00
30081;BME280;16902;50.816;12.828;2022-08-03T02:28:29;97909.75;;;13.91;100.00
30081;BME280;16902;50.816;12.828;2022-08-03T02:33:38;97905.72;;;13.88;100.00
30081;BME280;16902;50.816;12.828;2022-08-03T02:38:42;97904.06;;;13.80;100.00
30081;BME280;16902;50.816;12.828;2022-08-03T02:43:48;97901.63;;;13.72;100.00
30081;BME280;16902;50.816;12.828;2022-08-03T02:49:09;97907.84;;;13.65;100.00
30081;BME280;16902;50.816;12.828;2022-08-03T02:54:32;97905.41;;;13.63;100.00
30081;BME280;16902;50.816;12.828;2022-08-03T02:59:35;97897.38;;;13.65;100.00
30081;BME280;16902;50.816;12.828;2022-08-03T03:04:38;97895.34;;;13.60;100.00
30081;BME280;16902;50.816;12.828;2022-08-03T03:10:03;97891.88;;;13.53;100.00
30081;BME280;16902;50.816;12.828;2022-08-03T03:15:05;97901.53;;;13.46;100.00
30081;BME280;16902;50.816;12.828;2022-08-03T03:20:08;97895.28;;;13.40;100.00
30081;BME280;16902;50.816;12.828;2022-08-03T03:25:10;97889.63;;;13.43;100.00
30081;BME280;16902;50.816;12.828;2022-08-03T03:30:12;97889.84;;;13.42;100.00
30081;BME280;16902;50.816;12.828;2022-08-03T03:35:14;97888.19;;;13.34;100.00
30081;BME280;16902;50.816;12.828;2022-08-03T03:40:17;97893.63;;;13.32;100.00
30081;BME280;16902;50.816;12.828;2022-08-03T03:45:22;97893.47;;;13.41;100.00
30081;BME280;16902;50.816;12.828;2022-08-03T03:50:25;97895.44;;;13.38;100.00
30081;BME280;16902;50.816;12.828;2022-08-03T03:55:28;97889.03;;;13.41;100.00
30081;BME280;16902;50.816;12.828;2022-08-03T04:00:31;97900.09;;;13.43;100.00
30081;BME280;16902;50.816;12.828;2022-08-03T04:05:33;97896.09;;;13.47;100.00
30081;BME280;16902;50.816;12.828;2022-08-03T04:16:15;97900.97;;;13.57;100.00
30081;BME280;16902;50.816;12.828;2022-08-03T04:21:20;97903.44;;;13.65;100.00
30081;BME280;16902;50.816;12.828;2022-08-03T04:26:26;97908.50;;;13.73;100.00
30081;BME280;16902;50.816;12.828;2022-08-03T04:31:29;97907.28;;;13.82;100.00
30081;BME280;16902;50.816;12.828;2022-08-03T04:36:32;97919.25;;;13.98;100.00
30081;BME280;16902;50.816;12.828;2022-08-03T04:41:38;97911.59;;;14.10;100.00
30081;BME280;16902;50.816;12.828;2022-08-03T04:47:01;97909.63;;;14.25;100.00
30081;BME280;16902;50.816;12.828;2022-08-03T04:52:04;97917.31;;;14.47;100.00
30081;BME280;16902;50.816;12.828;2022-08-03T04:57:09;97923.78;;;14.64;100.00
30081;BME280;16902;50.816;12.828;2022-08-03T05:02:23;97924.81;;;14.76;100.00
30081;BME280;16902;50.816;12.828;2022-08-03T05:07:24;97933.06;;;14.93;100.00
30081;BME280;16902;50.816;12.828;2022-08-03T05:12:36;97928.81;;;15.12;100.00
30081;BME280;16902;50.816;12.828;2022-08-03T05:17:38;97926.34;;;15.30;100.00
30081;BME280;16902;50.816;12.828;2022-08-03T05:22:40;97919.03;;;15.52;100.00
30081;BME280;16902;50.816;12.828;2022-08-03T05:27:42;97924.59;;;15.76;100.00
30081;BME280;16902;50.816;12.828;2022-08-03T05:32:44;97926.31;;;16.02;100.00
30081;BME280;16902;50.816;12.828;2022-08-03T05:37:46;97925.34;;;16.59;100.00
30081;BME280;16902;50.816;12.828;2022-08-03T05:42:55;97930.13;;;17.37;100.00
30081;BME280;16902;50.816;12.828;2022-08-03T05:47:58;97929.97;;;17.69;100.00
30081;BME280;16902;50.816;12.828;2022-08-03T05:53:00;97931.00;;;18.16;100.00
30081;BME280;16902;50.816;12.828;2022-08-03T05:58:02;97937.28;;;18.45;100.00
30081;BME280;16902;50.816;12.828;2022-08-03T06:03:04;97943.75;;;18.61;100.00
30081;BME280;16902;50.816;12.828;2022-08-03T06:08:06;97939.88;;;18.75;100.00
30081;BME280;16902;50.816;12.828;2022-08-03T06:13:08;97945.66;;;19.19;100.00
30081;BME280;16902;50.816;12.828;2022-08-03T06:18:10;97940.00;;;19.63;100.00
30081;BME280;16902;50.816;12.828;2022-08-03T06:23:12;97940.56;;;20.05;100.00
30081;BME280;16902;50.816;12.828;2022-08-03T06:28:18;97946.72;;;20.22;100.00
30081;BME280;16902;50.816;12.828;2022-08-03T06:33:40;97943.78;;;20.36;100.00
30081;BME280;16902;50.816;12.828;2022-08-03T06:39:02;97941.44;;;20.22;100.00
30081;BME280;16902;50.816;12.828;2022-08-03T06:44:04;97947.03;;;20.54;100.00
30081;BME280;16902;50.816;12.828;2022-08-03T06:49:06;97950.56;;;20.77;100.00
30081;BME280;16902;50.816;12.828;2022-08-03T06:54:08;97951.28;;;21.06;100.00
30081;BME280;16902;50.816;12.828;2022-08-03T06:59:10;97955.75;;;21.22;100.00
30081;BME280;16902;50.816;12.828;2022-08-03T07:04:32;97951.22;;;21.57;100.00
30081;BME280;16902;50.816;12.828;2022-08-03T07:09:34;97948.03;;;21.76;100.00
30081;BME280;16902;50.816;12.828;2022-08-03T07:14:38;97951.53;;;21.82;100.00
30081;BME280;16902;50.816;12.828;2022-08-03T07:19:40;97952.47;;;22.15;100.00
30081;BME280;16902;50.816;12.828;2022-08-03T07:24:42;97952.41;;;22.37;100.00
30081;BME280;16902;50.816;12.828;2022-08-03T07:29:44;97958.69;;;22.57;100.00
30081;BME280;16902;50.816;12.828;2022-08-03T07:34:46;97949.19;;;22.94;100.00
30081;BME280;16902;50.816;12.828;2022-08-03T07:39:48;97946.22;;;23.22;100.00
30081;BME280;16902;50.816;12.828;2022-08-03T07:44:49;97947.97;;;23.59;100.00
30081;BME280;16902;50.816;12.828;2022-08-03T07:49:51;97942.50;;;23.76;100.00
30081;BME280;16902;50.816;12.828;2022-08-03T07:54:53;97953.00;;;24.08;100.00
30081;BME280;16902;50.816;12.828;2022-08-03T07:59:55;97941.84;;;24.26;100.00
30081;BME280;16902;50.816;12.828;2022-08-03T08:05:12;97947.78;;;24.54;100.00
30081;BME280;16902;50.816;12.828;2022-08-03T08:10:14;97949.09;;;24.92;100.00
30081;BME280;16902;50.816;12.828;2022-08-03T08:15:16;97939.22;;;25.28;100.00
30081;BME280;16902;50.816;12.828;2022-08-03T08:20:23;97951.97;;;25.47;100.00
30081;BME280;16902;50.816;12.828;2022-08-03T08:25:31;97952.06;;;25.96;100.00
30081;BME280;16902;50.816;12.828;2022-08-03T08:30:34;97944.34;;;25.95;100.00
30081;BME280;16902;50.816;12.828;2022-08-03T08:35:37;97947.19;;;26.08;100.00
30081;BME280;16902;50.816;12.828;2022-08-03T08:40:39;97953.34;;;26.09;100.00
30081;BME280;16902;50.816;12.828;2022-08-03T08:45:41;97945.31;;;26.53;100.00
30081;BME280;16902;50.816;12.828;2022-08-03T08:50:46;97952.59;;;26.82;100.00
30081;BME280;16902;50.816;12.828;2022-08-03T08:55:49;97942.06;;;27.25;100.00
30081;BME280;16902;50.816;12.828;2022-08-03T09:01:00;97944.84;;;27.62;100.00
30081;BME280;16902;50.816;12.828;2022-08-03T09:06:02;97941.97;;;27.83;100.00
30081;BME280;16902;50.816;12.828;2022-08-03T09:11:04;97943.50;;;28.08;100.00
30081;BME280;16902;50.816;12.828;2022-08-03T09:16:09;97941.25;;;28.53;100.00
30081;BME280;16902;50.816;12.828;2022-08-03T09:26:34;97940.91;;;28.92;89.86
30081;BME280;16902;50.816;12.828;2022-08-03T09:31:38;97938.44;;;28.77;92.15
30081;BME280;16902;50.816;12.828;2022-08-03T09:36:49;97940.28;;;29.28;87.51
30081;BME280;16902;50.816;12.828;2022-08-03T09:47:26;97933.13;;;29.37;86.74
30081;BME280;16902;50.816;12.828;2022-08-03T09:52:32;97929.84;;;28.80;81.53
30081;BME280;16902;50.816;12.828;2022-08-03T09:57:51;97935.72;;;29.42;80.59
30081;BME280;16902;50.816;12.828;2022-08-03T10:03:03;97931.94;;;29.84;78.13
30081;BME280;16902;50.816;12.828;2022-08-03T10:08:13;97924.13;;;30.10;77.55
30081;BME280;16902;50.816;12.828;2022-08-03T10:13:17;97926.44;;;30.62;67.49
30081;BME280;16902;50.816;12.828;2022-08-03T10:18:19;97923.81;;;30.48;69.46
30081;BME280;16902;50.816;12.828;2022-08-03T10:23:21;97914.28;;;30.64;64.63
30081;BME280;16902;50.816;12.828;2022-08-03T10:28:23;97918.72;;;30.69;65.15
30081;BME280;16902;50.816;12.828;2022-08-03T10:33:31;97912.88;;;31.20;64.34
30081;BME280;16902;50.816;12.828;2022-08-03T10:38:53;97907.47;;;30.89;55.58
30081;BME280;16902;50.816;12.828;2022-08-03T10:49:00;97903.31;;;31.06;53.98
30081;BME280;16902;50.816;12.828;2022-08-03T10:54:03;97899.06;;;30.60;53.21
30081;BME280;16902;50.816;12.828;2022-08-03T10:59:05;97897.63;;;30.76;58.52
30081;BME280;16902;50.816;12.828;2022-08-03T11:04:16;97883.88;;;31.57;59.66
30081;BME280;16902;50.816;12.828;2022-08-03T11:09:18;97887.09;;;32.29;50.41
30081;BME280;16902;50.816;12.828;2022-08-03T11:14:21;97890.03;;;32.96;48.17
30081;BME280;16902;50.816;12.828;2022-08-03T11:19:42;97887.50;;;35.34;40.38
30081;BME280;16902;50.816;12.828;2022-08-03T11:24:59;97888.72;;;37.64;36.40
30081;BME280;16902;50.816;12.828;2022-08-03T11:40:47;97883.72;;;40.86;34.74
30081;BME280;16902;50.816;12.828;2022-08-03T11:51:07;97885.06;;;42.52;30.57
30081;BME280;16902;50.816;12.828;2022-08-03T11:56:19;97880.31;;;41.44;30.31
30081;BME280;16902;50.816;12.828;2022-08-03T12:01:22;97882.34;;;41.06;30.94
30081;BME280;16902;50.816;12.828;2022-08-03T12:06:24;97885.13;;;44.47;29.95
30081;BME280;16902;50.816;12.828;2022-08-03T12:11:26;97870.84;;;42.04;29.29
30081;BME280;16902;50.816;12.828;2022-08-03T12:16:29;97868.69;;;42.95;30.35
30081;BME280;16902;50.816;12.828;2022-08-03T12:21:31;97872.59;;;43.23;27.17
30081;BME280;16902;50.816;12.828;2022-08-03T12:26:44;97869.16;;;44.87;27.75
30081;BME280;16902;50.816;12.828;2022-08-03T12:32:00;97864.44;;;46.35;26.23
30081;BME280;16902;50.816;12.828;2022-08-03T12:37:03;97859.53;;;47.63;25.09
30081;BME280;16902;50.816;12.828;2022-08-03T12:42:30;97850.84;;;47.65;24.56
30081;BME280;16902;50.816;12.828;2022-08-03T12:47:51;97846.03;;;46.55;24.98
30081;BME280;16902;50.816;12.828;2022-08-03T12:52:55;97849.88;;;48.80;25.59
30081;BME280;16902;50.816;12.828;2022-08-03T12:58:01;97837.69;;;48.61;24.38
30081;BME280;16902;50.816;12.828;2022-08-03T13:03:05;97848.06;;;49.64;25.09
30081;BME280;16902;50.816;12.828;2022-08-03T13:08:28;97829.38;;;47.93;23.65
30081;BME280;16902;50.816;12.828;2022-08-03T13:13:39;97841.66;;;48.93;25.96
30081;BME280;16902;50.816;12.828;2022-08-03T13:18:41;97832.53;;;51.07;23.79
30081;BME280;16902;50.816;12.828;2022-08-03T13:23:45;97823.94;;;49.78;23.84
30081;BME280;16902;50.816;12.828;2022-08-03T13:28:47;97824.53;;;51.09;22.84
30081;BME280;16902;50.816;12.828;2022-08-03T13:33:49;97829.16;;;50.78;22.66
30081;BME280;16902;50.816;12.828;2022-08-03T13:38:51;97819.94;;;50.81;22.88
30081;BME280;16902;50.816;12.828;2022-08-03T13:43:52;97819.81;;;51.85;22.01
30081;BME280;16902;50.816;12.828;2022-08-03T13:49:16;97819.81;;;49.70;22.73
30081;BME280;16902;50.816;12.828;2022-08-03T13:54:21;97807.50;;;51.42;22.75
30081;BME280;16902;50.816;12.828;2022-08-03T13:59:24;97803.84;;;52.48;21.55
30081;BME280;16902;50.816;12.828;2022-08-03T14:04:26;97794.88;;;51.94;21.49
30081;BME280;16902;50.816;12.828;2022-08-03T14:09:28;97794.19;;;49.11;22.36
30081;BME280;16902;50.816;12.828;2022-08-03T14:14:30;97786.09;;;50.51;22.43
30081;BME280;16902;50.816;12.828;2022-08-03T14:19:32;97783.72;;;48.73;22.87
30081;BME280;16902;50.816;12.828;2022-08-03T14:24:53;97782.66;;;51.16;21.76
30081;BME280;16902;50.816;12.828;2022-08-03T14:29:55;97785.34;;;53.36;21.50
30081;BME280;16902;50.816;12.828;2022-08-03T14:35:00;97777.28;;;49.51;22.19
30081;BME280;16902;50.816;12.828;2022-08-03T14:40:02;97776.34;;;52.40;21.11
30081;BME280;16902;50.816;12.828;2022-08-03T14:45:05;97785.03;;;53.95;20.65
30081;BME280;16902;50.816;12.828;2022-08-03T14:50:20;97779.91;;;53.60;20.74
30081;BME280;16902;50.816;12.828;2022-08-03T14:55:41;97778.09;;;55.40;20.55
30081;BME280;16902;50.816;12.828;2022-08-03T15:00:53;97767.28;;;54.88;20.39
30081;BME280;16902;50.816;12.828;2022-08-03T15:05:56;97760.25;;;55.97;19.92
30081;BME280;16902;50.816;12.828;2022-08-03T15:10:58;97765.81;;;55.76;19.49
30081;BME280;16902;50.816;12.828;2022-08-03T15:16:00;97753.19;;;55.22;19.59
30081;BME280;16902;50.816;12.828;2022-08-03T15:21:01;97742.75;;;51.67;20.79
30081;BME280;16902;50.816;12.828;2022-08-03T15:26:03;97723.56;;;47.43;23.34
30081;BME280;16902;50.816;12.828;2022-08-03T15:31:25;97707.09;;;42.74;26.43
30081;BME280;16902;50.816;12.828;2022-08-03T15:36:27;97701.25;;;38.75;30.62
30081;BME280;16902;50.816;12.828;2022-08-03T15:41:29;97703.19;;;37.25;32.72
30081;BME280;16902;50.816;12.828;2022-08-03T15:46:31;97682.16;;;35.48;35.57
30081;BME280;16902;50.816;12.828;2022-08-03T15:51:33;97689.63;;;34.98;35.10
30081;BME280;16902;50.816;12.828;2022-08-03T15:56:35;97680.63;;;34.33;38.21
30081;BME280;16902;50.816;12.828;2022-08-03T16:01:39;97684.25;;;33.92;38.50
30081;BME280;16902;50.816;12.828;2022-08-03T16:06:41;97674.78;;;33.53;38.67
30081;BME280;16902;50.816;12.828;2022-08-03T16:11:43;97673.72;;;33.24;39.27
30081;BME280;16902;50.816;12.828;2022-08-03T16:16:45;97673.66;;;33.12;40.77
30081;BME280;16902;50.816;12.828;2022-08-03T16:21:47;97669.03;;;32.62;43.53
30081;BME280;16902;50.816;12.828;2022-08-03T16:26:50;97675.69;;;32.26;45.56
30081;BME280;16902;50.816;12.828;2022-08-03T16:31:52;97662.22;;;32.26;41.73
30081;BME280;16902;50.816;12.828;2022-08-03T16:36:54;97679.41;;;32.51;41.98
30081;BME280;16902;50.816;12.828;2022-08-03T16:41:57;97669.78;;;32.41;39.86
30081;BME280;16902;50.816;12.828;2022-08-03T16:47:02;97676.78;;;31.87;45.67
30081;BME280;16902;50.816;12.828;2022-08-03T16:52:04;97671.09;;;31.54;46.25
30081;BME280;16902;50.816;12.828;2022-08-03T16:57:07;97668.72;;;31.26;45.10
30081;BME280;16902;50.816;12.828;2022-08-03T17:02:20;97670.59;;;30.91;46.32
30081;BME280;16902;50.816;12.828;2022-08-03T17:07:26;97671.28;;;30.65;49.26
30081;BME280;16902;50.816;12.828;2022-08-03T17:12:30;97670.84;;;30.24;53.34
30081;BME280;16902;50.816;12.828;2022-08-03T17:17:34;97669.88;;;29.88;54.74
30081;BME280;16902;50.816;12.828;2022-08-03T17:23:16;97681.50;;;29.39;56.91
30081;BME280;16902;50.816;12.828;2022-08-03T17:28:42;97686.19;;;28.97;63.51
30081;BME280;16902;50.816;12.828;2022-08-03T17:34:00;97675.38;;;28.61;62.87
30081;BME280;16902;50.816;12.828;2022-08-03T17:39:05;97677.88;;;28.43;69.43
30081;BME280;16902;50.816;12.828;2022-08-03T17:44:07;97679.31;;;28.22;72.33
30081;BME280;16902;50.816;12.828;2022-08-03T17:49:29;97682.53;;;27.91;71.86
30081;BME280;16902;50.816;12.828;2022-08-03T18:00:21;97692.09;;;27.79;58.68
30081;BME280;16902;50.816;12.828;2022-08-03T18:05:48;97697.75;;;27.58;62.00
30081;BME280;16902;50.816;12.828;2022-08-03T18:11:11;97697.13;;;27.29;64.79
30081;BME280;16902;50.816;12.828;2022-08-03T18:16:37;97700.34;;;27.07;68.51
30081;BME280;16902;50.816;12.828;2022-08-03T18:21:41;97702.97;;;26.69;73.32
30081;BME280;16902;50.816;12.828;2022-08-03T18:27:04;97705.38;;;26.42;74.88
30081;BME280;16902;50.816;12.828;2022-08-03T18:32:08;97707.28;;;26.12;81.06
30081;BME280;16902;50.816;12.828;2022-08-03T18:37:26;97703.50;;;25.89;82.48
30081;BME280;16902;50.816;12.828;2022-08-03T18:42:30;97702.88;;;25.63;89.24
30081;BME280;16902;50.816;12.828;2022-08-03T18:53:11;97704.03;;;25.07;98.72
30081;BME280;16902;50.816;12.828;2022-08-03T18:58:55;97712.94;;;24.72;100.00
30081;BME280;16902;50.816;12.828;2022-08-03T19:04:14;97712.47;;;24.50;100.00
30081;BME280;16902;50.816;12.828;2022-08-03T19:09:46;97723.41;;;24.28;100.00
30081;BME280;16902;50.816;12.828;2022-08-03T19:14:54;97716.25;;;24.13;100.00
30081;BME280;16902;50.816;12.828;2022-08-03T19:19:57;97718.13;;;23.77;100.00
30081;BME280;16902;50.816;12.828;2022-08-03T19:25:03;97718.88;;;23.42;100.00
30081;BME280;16902;50.816;12.828;2022-08-03T19:30:06;97727.59;;;23.17;100.00
30081;BME280;16902;50.816;12.828;2022-08-03T19:35:30;97734.13;;;22.94;100.00
30081;BME280;16902;50.816;12.828;2022-08-03T19:40:56;97730.47;;;22.57;100.00
30081;BME280;16902;50.816;12.828;2022-08-03T19:46:02;97726.94;;;22.37;100.00
30081;BME280;16902;50.816;12.828;2022-08-03T19:51:09;97733.19;;;22.20;100.00
30081;BME280;16902;50.816;12.828;2022-08-03T19:56:31;97717.34;;;21.98;100.00
30081;BME280;16902;50.816;12.828;2022-08-03T20:01:35;97726.22;;;21.77;100.00
30081;BME280;16902;50.816;12.828;2022-08-03T20:06:51;97721.28;;;21.59;100.00
30081;BME280;16902;50.816;12.828;2022-08-03T20:12:00;97724.84;;;21.42;100.00
30081;BME280;16902;50.816;12.828;2022-08-03T20:17:04;97725.69;;;21.26;100.00
30081;BME280;16902;50.816;12.828;2022-08-03T20:22:10;97726.19;;;21.23;100.00
30081;BME280;16902;50.816;12.828;2022-08-03T20:27:16;97730.03;;;21.10;100.00
30081;BME280;16902;50.816;12.828;2022-08-03T20:32:20;97732.19;;;20.91;100.00
30081;BME280;16902;50.816;12.828;2022-08-03T20:37:25;97730.63;;;20.73;100.00
30081;BME280;16902;50.816;12.828;2022-08-03T20:42:30;97727.13;;;20.68;100.00
30081;BME280;16902;50.816;12.828;2022-08-03T20:47:35;97732.94;;;20.65;100.00
30081;BME280;16902;50.816;12.828;2022-08-03T20:52:51;97730.84;;;20.50;100.00
30081;BME280;16902;50.816;12.828;2022-08-03T20:57:53;97722.31;;;20.26;100.00
30081;BME280;16902;50.816;12.828;2022-08-03T21:03:00;97727.13;;;20.12;100.00
30081;BME280;16902;50.816;12.828;2022-08-03T21:08:05;97727.72;;;19.97;100.00
30081;BME280;16902;50.816;12.828;2022-08-03T21:13:15;97725.69;;;19.88;100.00
30081;BME280;16902;50.816;12.828;2022-08-03T21:18:21;97724.06;;;19.87;100.00
30081;BME280;16902;50.816;12.828;2022-08-03T21:23:24;97730.03;;;19.94;100.00
30081;BME280;16902;50.816;12.828;2022-08-03T21:28:48;97730.03;;;19.94;100.00
30081;BME280;16902;50.816;12.828;2022-08-03T21:33:52;97729.38;;;19.87;100.00
30081;BME280;16902;50.816;12.828;2022-08-03T21:38:56;97718.97;;;19.80;100.00
30081;BME280;16902;50.816;12.828;2022-08-03T21:43:59;97721.03;;;19.61;100.00
30081;BME280;16902;50.816;12.828;2022-08-03T21:49:04;97718.00;;;19.41;100.00
30081;BME280;16902;50.816;12.828;2022-08-03T21:54:36;97721.72;;;19.28;100.00
30081;BME280;16902;50.816;12.828;2022-08-03T21:59:43;97710.91;;;19.13;100.00
30081;BME280;16902;50.816;12.828;2022-08-03T22:04:47;97714.72;;;19.05;100.00
30081;BME280;16902;50.816;12.828;2022-08-03T22:09:58;97717.84;;;18.90;100.00
30081;BME280;16902;50.816;12.828;2022-08-03T22:15:03;97722.22;;;18.85;100.00
30081;BME280;16902;50.816;12.828;2022-08-03T22:20:09;97729.00;;;18.81;100.00
30081;BME280;16902;50.816;12.828;2022-08-03T22:25:14;97724.31;;;18.71;100.00
30081;BME280;16902;50.816;12.828;2022-08-03T22:30:17;97726.00;;;18.65;100.00
30081;BME280;16902;50.816;12.828;2022-08-03T22:35:20;97722.47;;;18.60;100.00
30081;BME280;16902;50.816;12.828;2022-08-03T22:40:25;97726.50;;;18.50;100.00
30081;BME280;16902;50.816;12.828;2022-08-03T22:45:28;97731.75;;;18.50;100.00
30081;BME280;16902;50.816;12.828;2022-08-03T22:50:50;97739.13;;;18.48;100.00
30081;BME280;16902;50.816;12.828;2022-08-03T22:55:52;97737.50;;;18.36;100.00
30081;BME280;16902;50.816;12.828;2022-08-03T23:00:57;97738.66;;;18.28;100.00
30081;BME280;16902;50.816;12.828;2022-08-03T23:06:02;97744.41;;;18.13;100.00
30081;BME280;16902;50.816;12.828;2022-08-03T23:11:05;97733.38;;;18.05;100.00
30081;BME280;16902;50.816;12.828;2022-08-03T23:16:10;97737.38;;;17.95;100.00
30081;BME280;16902;50.816;12.828;2022-08-03T23:21:14;97735.19;;;17.92;100.00
30081;BME280;16902;50.816;12.828;2022-08-03T23:26:38;97735.53;;;17.84;100.00
30081;BME280;16902;50.816;12.828;2022-08-03T23:31:42;97728.31;;;17.80;100.00
30081;BME280;16902;50.816;12.828;2022-08-03T23:36:48;97727.56;;;17.72;100.00
30081;BME280;16902;50.816;12.828;2022-08-03T23:41:51;97729.72;;;17.64;100.00
30081;BME280;16902;50.816;12.828;2022-08-03T23:46:53;97732.91;;;17.54;100.00
30081;BME280;16902;50.816;12.828;2022-08-03T23:52:02;97730.63;;;17.46;100.00
